sensor_id;sensor_type;location;lat;lon;timestamp;temperature;humidity
18880;DHT22;9572;52.378;13.404;2022-08-21T00:02:27;19.60;99.90
18880;DHT22;9572;52.378;13.404;2022-08-21T00:04:58;19.50;99.90
18880;DHT22;9572;52.378;13.404;2022-08-21T00:07:26;19.50;99.90
18880;DHT22;9572;52.378;13.404;2022-08-21T00:09:56;19.50;99.90
18880;DHT22;9572;52.378;13.404;2022-08-21T00:12:23;19.50;99.90
18880;DHT22;9572;52.378;13.404;2022-08-21T00:14:51;19.50;99.90
18880;DHT22;9572;52.378;13.404;2022-08-21T00:17:18;19.50;99.90
18880;DHT22;9572;52.378;13.404;2022-08-21T00:19:45;19.50;99.90
18880;DHT22;9572;52.378;13.404;2022-08-21T00:22:14;19.50;99.90
18880;DHT22;9572;52.378;13.404;2022-08-21T00:24:41;19.50;99.90
18880;DHT22;9572;52.378;13.404;2022-08-21T00:27:08;19.50;99.90
18880;DHT22;9572;52.378;13.404;2022-08-21T00:29:38;19.50;99.90
18880;DHT22;9572;52.378;13.404;2022-08-21T00:32:07;19.50;99.90
18880;DHT22;9572;52.378;13.404;2022-08-21T00:34:34;19.50;99.90
18880;DHT22;9572;52.378;13.404;2022-08-21T00:37:02;19.50;99.90
18880;DHT22;9572;52.378;13.404;2022-08-21T00:39:31;19.40;99.90
18880;DHT22;9572;52.378;13.404;2022-08-21T00:41:58;19.40;99.90
18880;DHT22;9572;52.378;13.404;2022-08-21T00:44:25;19.40;99.90
18880;DHT22;9572;52.378;13.404;2022-08-21T00:46:52;19.40;99.90
18880;DHT22;9572;52.378;13.404;2022-08-21T00:49:22;19.40;99.90
18880;DHT22;9572;52.378;13.404;2022-08-21T00:51:52;19.30;99.90
18880;DHT22;9572;52.378;13.404;2022-08-21T00:54:23;19.30;99.90
18880;DHT22;9572;52.378;13.404;2022-08-21T00:56:55;19.30;99.90
18880;DHT22;9572;52.378;13.404;2022-08-21T00:59:23;19.30;99.90
18880;DHT22;9572;52.378;13.404;2022-08-21T01:01:54;19.30;99.90
18880;DHT22;9572;52.378;13.404;2022-08-21T01:04:22;19.30;99.90
18880;DHT22;9572;52.378;13.404;2022-08-21T01:06:50;19.20;99.90
18880;DHT22;9572;52.378;13.404;2022-08-21T01:09:17;19.20;99.90
18880;DHT22;9572;52.378;13.404;2022-08-21T01:11:45;19.20;99.90
18880;DHT22;9572;52.378;13.404;2022-08-21T01:14:14;19.20;99.90
18880;DHT22;9572;52.378;13.404;2022-08-21T01:16:46;19.20;99.90
18880;DHT22;9572;52.378;13.404;2022-08-21T01:19:20;19.20;99.90
18880;DHT22;9572;52.378;13.404;2022-08-21T01:21:49;19.20;99.90
18880;DHT22;9572;52.378;13.404;2022-08-21T01:24:16;19.10;99.90
18880;DHT22;9572;52.378;13.404;2022-08-21T01:26:47;19.10;99.90
18880;DHT22;9572;52.378;13.404;2022-08-21T01:29:26;19.20;99.90
18880;DHT22;9572;52.378;13.404;2022-08-21T01:31:56;19.10;99.90
18880;DHT22;9572;52.378;13.404;2022-08-21T01:34:23;19.10;99.90
18880;DHT22;9572;52.378;13.404;2022-08-21T01:36:52;19.00;99.90
18880;DHT22;9572;52.378;13.404;2022-08-21T01:39:19;19.00;99.90
18880;DHT22;9572;52.378;13.404;2022-08-21T01:41:46;19.00;99.90
18880;DHT22;9572;52.378;13.404;2022-08-21T01:44:13;19.00;99.90
18880;DHT22;9572;52.378;13.404;2022-08-21T01:46:40;19.00;99.90
18880;DHT22;9572;52.378;13.404;2022-08-21T01:49:07;19.00;99.90
18880;DHT22;9572;52.378;13.404;2022-08-21T01:51:34;18.90;99.90
18880;DHT22;9572;52.378;13.404;2022-08-21T01:54:02;18.90;99.90
18880;DHT22;9572;52.378;13.404;2022-08-21T01:56:36;18.90;99.90
18880;DHT22;9572;52.378;13.404;2022-08-21T01:59:03;18.80;99.90
18880;DHT22;9572;52.378;13.404;2022-08-21T02:01:30;18.80;99.90
18880;DHT22;9572;52.378;13.404;2022-08-21T02:03:57;18.80;99.90
18880;DHT22;9572;52.378;13.404;2022-08-21T02:06:25;18.80;99.90
18880;DHT22;9572;52.378;13.404;2022-08-21T02:08:53;18.80;99.90
18880;DHT22;9572;52.378;13.404;2022-08-21T02:11:21;18.70;99.90
18880;DHT22;9572;52.378;13.404;2022-08-21T02:13:49;18.70;99.90
18880;DHT22;9572;52.378;13.404;2022-08-21T02:16:16;18.70;99.90
18880;DHT22;9572;52.378;13.404;2022-08-21T02:18:43;18.70;99.90
18880;DHT22;9572;52.378;13.404;2022-08-21T02:21:10;18.70;99.90
18880;DHT22;9572;52.378;13.404;2022-08-21T02:23:37;18.70;99.90
18880;DHT22;9572;52.378;13.404;2022-08-21T02:26:07;18.70;99.90
18880;DHT22;9572;52.378;13.404;2022-08-21T02:28:37;18.70;99.90
18880;DHT22;9572;52.378;13.404;2022-08-21T02:31:05;18.70;99.90
18880;DHT22;9572;52.378;13.404;2022-08-21T02:33:32;18.60;99.90
18880;DHT22;9572;52.378;13.404;2022-08-21T02:35:59;18.60;99.90
18880;DHT22;9572;52.378;13.404;2022-08-21T02:38:29;18.60;99.90
18880;DHT22;9572;52.378;13.404;2022-08-21T02:40:57;18.60;99.90
18880;DHT22;9572;52.378;13.404;2022-08-21T02:43:25;18.50;99.90
18880;DHT22;9572;52.378;13.404;2022-08-21T02:45:55;18.50;99.90
18880;DHT22;9572;52.378;13.404;2022-08-21T02:48:25;18.50;99.90
18880;DHT22;9572;52.378;13.404;2022-08-21T02:50:55;18.50;99.90
18880;DHT22;9572;52.378;13.404;2022-08-21T02:53:22;18.40;99.90
18880;DHT22;9572;52.378;13.404;2022-08-21T02:55:51;18.40;99.90
18880;DHT22;9572;52.378;13.404;2022-08-21T02:58:20;18.40;99.90
18880;DHT22;9572;52.378;13.404;2022-08-21T03:00:48;18.40;99.90
18880;DHT22;9572;52.378;13.404;2022-08-21T03:03:16;18.30;99.90
18880;DHT22;9572;52.378;13.404;2022-08-21T03:05:43;18.30;99.90
18880;DHT22;9572;52.378;13.404;2022-08-21T03:08:12;18.30;99.90
18880;DHT22;9572;52.378;13.404;2022-08-21T03:10:42;18.30;99.90
18880;DHT22;9572;52.378;13.404;2022-08-21T03:13:09;18.30;99.90
18880;DHT22;9572;52.378;13.404;2022-08-21T03:15:37;18.20;99.90
18880;DHT22;9572;52.378;13.404;2022-08-21T03:18:04;18.20;99.90
18880;DHT22;9572;52.378;13.404;2022-08-21T03:20:34;18.20;99.90
18880;DHT22;9572;52.378;13.404;2022-08-21T03:23:02;18.10;99.90
18880;DHT22;9572;52.378;13.404;2022-08-21T03:25:31;18.10;99.90
18880;DHT22;9572;52.378;13.404;2022-08-21T03:27:59;18.10;99.90
18880;DHT22;9572;52.378;13.404;2022-08-21T03:30:26;18.10;99.90
18880;DHT22;9572;52.378;13.404;2022-08-21T03:32:53;18.10;99.90
18880;DHT22;9572;52.378;13.404;2022-08-21T03:35:21;18.00;99.90
18880;DHT22;9572;52.378;13.404;2022-08-21T03:37:49;18.00;99.90
18880;DHT22;9572;52.378;13.404;2022-08-21T03:40:17;18.00;99.90
18880;DHT22;9572;52.378;13.404;2022-08-21T03:42:46;18.00;99.90
18880;DHT22;9572;52.378;13.404;2022-08-21T03:45:15;18.00;99.90
18880;DHT22;9572;52.378;13.404;2022-08-21T03:47:51;17.90;99.90
18880;DHT22;9572;52.378;13.404;2022-08-21T03:50:18;17.90;99.90
18880;DHT22;9572;52.378;13.404;2022-08-21T03:52:45;17.90;99.90
18880;DHT22;9572;52.378;13.404;2022-08-21T03:55:14;17.80;99.90
18880;DHT22;9572;52.378;13.404;2022-08-21T03:57:40;17.80;99.90
18880;DHT22;9572;52.378;13.404;2022-08-21T04:00:09;17.80;99.90
18880;DHT22;9572;52.378;13.404;2022-08-21T04:02:37;17.80;99.90
18880;DHT22;9572;52.378;13.404;2022-08-21T04:05:05;17.80;99.90
18880;DHT22;9572;52.378;13.404;2022-08-21T04:07:32;17.70;99.90
18880;DHT22;9572;52.378;13.404;2022-08-21T04:09:59;17.70;99.90
18880;DHT22;9572;52.378;13.404;2022-08-21T04:12:27;17.70;99.90
18880;DHT22;9572;52.378;13.404;2022-08-21T04:14:55;17.70;99.90
18880;DHT22;9572;52.378;13.404;2022-08-21T04:17:22;17.70;99.90
18880;DHT22;9572;52.378;13.404;2022-08-21T04:19:49;17.70;99.90
18880;DHT22;9572;52.378;13.404;2022-08-21T04:22:16;17.70;99.90
18880;DHT22;9572;52.378;13.404;2022-08-21T04:24:43;17.60;99.90
18880;DHT22;9572;52.378;13.404;2022-08-21T04:27:10;17.60;99.90
18880;DHT22;9572;52.378;13.404;2022-08-21T04:29:38;17.60;99.90
18880;DHT22;9572;52.378;13.404;2022-08-21T04:32:05;17.60;99.90
18880;DHT22;9572;52.378;13.404;2022-08-21T04:34:32;17.60;99.90
18880;DHT22;9572;52.378;13.404;2022-08-21T04:36:59;17.60;99.90
18880;DHT22;9572;52.378;13.404;2022-08-21T04:39:26;17.50;99.90
18880;DHT22;9572;52.378;13.404;2022-08-21T04:41:53;17.50;99.90
18880;DHT22;9572;52.378;13.404;2022-08-21T04:44:20;17.50;99.90
18880;DHT22;9572;52.378;13.404;2022-08-21T04:46:48;17.50;99.90
18880;DHT22;9572;52.378;13.404;2022-08-21T04:49:15;17.50;99.90
18880;DHT22;9572;52.378;13.404;2022-08-21T04:51:42;17.50;99.90
18880;DHT22;9572;52.378;13.404;2022-08-21T04:54:12;17.50;99.90
18880;DHT22;9572;52.378;13.404;2022-08-21T04:56:44;17.50;99.90
18880;DHT22;9572;52.378;13.404;2022-08-21T04:59:14;17.50;99.90
18880;DHT22;9572;52.378;13.404;2022-08-21T05:01:43;17.50;99.90
18880;DHT22;9572;52.378;13.404;2022-08-21T05:04:13;17.50;99.90
18880;DHT22;9572;52.378;13.404;2022-08-21T05:06:43;17.60;99.90
18880;DHT22;9572;52.378;13.404;2022-08-21T05:09:13;17.60;99.90
18880;DHT22;9572;52.378;13.404;2022-08-21T05:11:41;17.60;99.90
18880;DHT22;9572;52.378;13.404;2022-08-21T05:14:08;17.60;99.90
18880;DHT22;9572;52.378;13.404;2022-08-21T05:16:36;17.60;99.90
18880;DHT22;9572;52.378;13.404;2022-08-21T05:19:03;17.60;99.90
18880;DHT22;9572;52.378;13.404;2022-08-21T05:21:32;17.60;99.90
18880;DHT22;9572;52.378;13.404;2022-08-21T05:23:59;17.60;99.90
18880;DHT22;9572;52.378;13.404;2022-08-21T05:26:25;17.70;99.90
18880;DHT22;9572;52.378;13.404;2022-08-21T05:28:52;17.60;99.90
18880;DHT22;9572;52.378;13.404;2022-08-21T05:31:19;17.70;99.90
18880;DHT22;9572;52.378;13.404;2022-08-21T05:33:46;17.70;99.90
18880;DHT22;9572;52.378;13.404;2022-08-21T05:36:13;17.70;99.90
18880;DHT22;9572;52.378;13.404;2022-08-21T05:38:41;17.70;99.90
18880;DHT22;9572;52.378;13.404;2022-08-21T05:41:09;17.70;99.90
18880;DHT22;9572;52.378;13.404;2022-08-21T05:43:36;17.80;99.90
18880;DHT22;9572;52.378;13.404;2022-08-21T05:46:04;17.80;99.90
18880;DHT22;9572;52.378;13.404;2022-08-21T05:48:32;17.80;99.90
18880;DHT22;9572;52.378;13.404;2022-08-21T05:51:04;17.80;99.90
18880;DHT22;9572;52.378;13.404;2022-08-21T05:53:32;17.80;99.90
18880;DHT22;9572;52.378;13.404;2022-08-21T05:56:00;17.80;99.90
18880;DHT22;9572;52.378;13.404;2022-08-21T05:58:30;17.80;99.90
18880;DHT22;9572;52.378;13.404;2022-08-21T06:00:59;17.80;99.90
18880;DHT22;9572;52.378;13.404;2022-08-21T06:03:28;17.90;99.90
18880;DHT22;9572;52.378;13.404;2022-08-21T06:05:56;17.90;99.90
18880;DHT22;9572;52.378;13.404;2022-08-21T06:08:24;18.00;99.90
18880;DHT22;9572;52.378;13.404;2022-08-21T06:10:52;18.00;99.90
18880;DHT22;9572;52.378;13.404;2022-08-21T06:13:21;18.00;99.90
18880;DHT22;9572;52.378;13.404;2022-08-21T06:15:50;18.10;99.90
18880;DHT22;9572;52.378;13.404;2022-08-21T06:18:17;18.00;99.90
18880;DHT22;9572;52.378;13.404;2022-08-21T06:20:44;18.00;99.90
18880;DHT22;9572;52.378;13.404;2022-08-21T06:23:11;18.00;99.90
18880;DHT22;9572;52.378;13.404;2022-08-21T06:25:38;18.10;99.90
18880;DHT22;9572;52.378;13.404;2022-08-21T06:28:08;18.10;99.90
18880;DHT22;9572;52.378;13.404;2022-08-21T06:30:38;18.20;99.90
18880;DHT22;9572;52.378;13.404;2022-08-21T06:33:05;18.20;99.90
18880;DHT22;9572;52.378;13.404;2022-08-21T06:35:33;18.20;99.90
18880;DHT22;9572;52.378;13.404;2022-08-21T06:38:00;18.20;99.90
18880;DHT22;9572;52.378;13.404;2022-08-21T06:40:28;18.20;99.90
18880;DHT22;9572;52.378;13.404;2022-08-21T06:42:55;18.20;99.90
18880;DHT22;9572;52.378;13.404;2022-08-21T06:45:22;18.20;99.90
18880;DHT22;9572;52.378;13.404;2022-08-21T06:47:51;18.30;99.90
18880;DHT22;9572;52.378;13.404;2022-08-21T06:50:18;18.30;99.90
18880;DHT22;9572;52.378;13.404;2022-08-21T06:52:45;18.40;99.90
18880;DHT22;9572;52.378;13.404;2022-08-21T06:55:12;18.50;99.90
18880;DHT22;9572;52.378;13.404;2022-08-21T06:57:39;18.60;99.90
18880;DHT22;9572;52.378;13.404;2022-08-21T07:00:07;18.60;99.90
18880;DHT22;9572;52.378;13.404;2022-08-21T07:02:35;18.60;99.90
18880;DHT22;9572;52.378;13.404;2022-08-21T07:05:04;18.70;99.90
18880;DHT22;9572;52.378;13.404;2022-08-21T07:07:31;18.70;99.90
18880;DHT22;9572;52.378;13.404;2022-08-21T07:09:58;18.80;99.90
18880;DHT22;9572;52.378;13.404;2022-08-21T07:12:25;18.90;99.90
18880;DHT22;9572;52.378;13.404;2022-08-21T07:14:52;19.00;99.90
18880;DHT22;9572;52.378;13.404;2022-08-21T07:17:19;19.10;99.90
18880;DHT22;9572;52.378;13.404;2022-08-21T07:19:46;19.20;99.90
18880;DHT22;9572;52.378;13.404;2022-08-21T07:22:15;19.30;99.90
18880;DHT22;9572;52.378;13.404;2022-08-21T07:24:43;19.30;99.90
18880;DHT22;9572;52.378;13.404;2022-08-21T07:27:10;19.30;99.90
18880;DHT22;9572;52.378;13.404;2022-08-21T07:29:37;19.40;99.90
18880;DHT22;9572;52.378;13.404;2022-08-21T07:32:05;19.50;99.90
18880;DHT22;9572;52.378;13.404;2022-08-21T07:34:32;19.70;99.90
18880;DHT22;9572;52.378;13.404;2022-08-21T07:36:59;19.70;99.90
18880;DHT22;9572;52.378;13.404;2022-08-21T07:39:27;19.80;99.90
18880;DHT22;9572;52.378;13.404;2022-08-21T07:41:54;19.80;99.90
18880;DHT22;9572;52.378;13.404;2022-08-21T07:44:21;19.90;99.90
18880;DHT22;9572;52.378;13.404;2022-08-21T07:46:48;20.00;99.90
18880;DHT22;9572;52.378;13.404;2022-08-21T07:49:15;20.00;99.90
18880;DHT22;9572;52.378;13.404;2022-08-21T07:51:42;20.10;99.90
18880;DHT22;9572;52.378;13.404;2022-08-21T07:54:09;20.20;99.90
18880;DHT22;9572;52.378;13.404;2022-08-21T07:56:37;20.30;99.90
18880;DHT22;9572;52.378;13.404;2022-08-21T07:59:04;20.20;99.90
18880;DHT22;9572;52.378;13.404;2022-08-21T08:01:31;20.30;99.90
18880;DHT22;9572;52.378;13.404;2022-08-21T08:03:58;20.30;99.90
18880;DHT22;9572;52.378;13.404;2022-08-21T08:06:25;20.30;99.90
18880;DHT22;9572;52.378;13.404;2022-08-21T08:08:52;20.40;99.90
18880;DHT22;9572;52.378;13.404;2022-08-21T08:11:18;20.50;99.90
18880;DHT22;9572;52.378;13.404;2022-08-21T08:13:48;20.50;99.90
18880;DHT22;9572;52.378;13.404;2022-08-21T08:16:16;20.60;99.90
18880;DHT22;9572;52.378;13.404;2022-08-21T08:18:43;20.80;99.90
18880;DHT22;9572;52.378;13.404;2022-08-21T08:21:11;20.80;99.90
18880;DHT22;9572;52.378;13.404;2022-08-21T08:23:39;21.00;99.90
18880;DHT22;9572;52.378;13.404;2022-08-21T08:26:06;21.10;99.90
18880;DHT22;9572;52.378;13.404;2022-08-21T08:28:33;21.10;99.90
18880;DHT22;9572;52.378;13.404;2022-08-21T08:31:01;21.10;99.90
18880;DHT22;9572;52.378;13.404;2022-08-21T08:33:29;21.20;99.90
18880;DHT22;9572;52.378;13.404;2022-08-21T08:35:56;21.10;99.90
18880;DHT22;9572;52.378;13.404;2022-08-21T08:38:25;21.20;99.90
18880;DHT22;9572;52.378;13.404;2022-08-21T08:40:57;21.20;99.90
18880;DHT22;9572;52.378;13.404;2022-08-21T08:43:28;21.20;99.90
18880;DHT22;9572;52.378;13.404;2022-08-21T08:45:58;21.30;99.90
18880;DHT22;9572;52.378;13.404;2022-08-21T08:48:43;21.40;99.90
18880;DHT22;9572;52.378;13.404;2022-08-21T08:51:16;21.40;99.90
18880;DHT22;9572;52.378;13.404;2022-08-21T08:53:50;21.20;99.90
18880;DHT22;9572;52.378;13.404;2022-08-21T08:56:22;21.20;99.90
18880;DHT22;9572;52.378;13.404;2022-08-21T08:58:52;21.20;99.90
18880;DHT22;9572;52.378;13.404;2022-08-21T09:01:21;21.30;99.90
18880;DHT22;9572;52.378;13.404;2022-08-21T09:03:49;21.20;99.90
18880;DHT22;9572;52.378;13.404;2022-08-21T09:06:37;21.30;99.90
18880;DHT22;9572;52.378;13.404;2022-08-21T09:09:19;21.30;99.90
18880;DHT22;9572;52.378;13.404;2022-08-21T09:11:52;21.40;99.90
18880;DHT22;9572;52.378;13.404;2022-08-21T09:14:33;21.40;99.90
18880;DHT22;9572;52.378;13.404;2022-08-21T09:17:16;21.40;99.90
18880;DHT22;9572;52.378;13.404;2022-08-21T09:19:59;21.50;99.90
18880;DHT22;9572;52.378;13.404;2022-08-21T09:22:35;21.50;99.90
18880;DHT22;9572;52.378;13.404;2022-08-21T09:25:12;21.60;99.90
18880;DHT22;9572;52.378;13.404;2022-08-21T09:27:40;21.60;99.90
18880;DHT22;9572;52.378;13.404;2022-08-21T09:30:09;21.80;99.90
18880;DHT22;9572;52.378;13.404;2022-08-21T09:32:37;21.80;99.90
18880;DHT22;9572;52.378;13.404;2022-08-21T09:35:09;21.90;99.90
18880;DHT22;9572;52.378;13.404;2022-08-21T09:37:47;21.90;99.90
18880;DHT22;9572;52.378;13.404;2022-08-21T09:40:31;22.00;99.90
18880;DHT22;9572;52.378;13.404;2022-08-21T09:43:01;21.90;99.90
18880;DHT22;9572;52.378;13.404;2022-08-21T09:45:31;22.10;99.90
18880;DHT22;9572;52.378;13.404;2022-08-21T09:48:11;22.20;99.90
18880;DHT22;9572;52.378;13.404;2022-08-21T09:50:40;22.40;99.90
18880;DHT22;9572;52.378;13.404;2022-08-21T09:53:16;22.40;99.90
18880;DHT22;9572;52.378;13.404;2022-08-21T09:55:51;22.50;99.90
18880;DHT22;9572;52.378;13.404;2022-08-21T09:58:51;22.50;99.90
18880;DHT22;9572;52.378;13.404;2022-08-21T10:01:22;22.50;99.90
18880;DHT22;9572;52.378;13.404;2022-08-21T10:04:02;22.60;99.90
18880;DHT22;9572;52.378;13.404;2022-08-21T10:06:31;22.70;99.90
18880;DHT22;9572;52.378;13.404;2022-08-21T10:09:05;22.70;99.90
18880;DHT22;9572;52.378;13.404;2022-08-21T10:11:34;22.80;99.90
18880;DHT22;9572;52.378;13.404;2022-08-21T10:14:08;22.80;99.90
18880;DHT22;9572;52.378;13.404;2022-08-21T10:16:46;22.80;99.90
18880;DHT22;9572;52.378;13.404;2022-08-21T10:19:32;22.90;99.90
18880;DHT22;9572;52.378;13.404;2022-08-21T10:22:22;23.00;99.90
18880;DHT22;9572;52.378;13.404;2022-08-21T10:25:01;23.30;99.90
18880;DHT22;9572;52.378;13.404;2022-08-21T10:27:36;23.60;99.90
18880;DHT22;9572;52.378;13.404;2022-08-21T10:30:08;23.80;99.90
18880;DHT22;9572;52.378;13.404;2022-08-21T10:33:01;23.80;99.90
18880;DHT22;9572;52.378;13.404;2022-08-21T10:35:33;23.80;99.90
18880;DHT22;9572;52.378;13.404;2022-08-21T10:38:40;23.80;99.90
18880;DHT22;9572;52.378;13.404;2022-08-21T10:41:14;23.80;99.90
18880;DHT22;9572;52.378;13.404;2022-08-21T10:43:50;23.70;99.90
18880;DHT22;9572;52.378;13.404;2022-08-21T10:46:36;23.60;99.90
18880;DHT22;9572;52.378;13.404;2022-08-21T10:49:14;23.60;99.90
18880;DHT22;9572;52.378;13.404;2022-08-21T10:51:52;23.80;99.90
18880;DHT22;9572;52.378;13.404;2022-08-21T10:54:32;23.90;99.90
18880;DHT22;9572;52.378;13.404;2022-08-21T10:57:05;24.10;99.90
18880;DHT22;9572;52.378;13.404;2022-08-21T10:59:38;24.30;99.90
18880;DHT22;9572;52.378;13.404;2022-08-21T11:02:13;24.60;99.90
18880;DHT22;9572;52.378;13.404;2022-08-21T11:04:48;24.90;99.90
18880;DHT22;9572;52.378;13.404;2022-08-21T11:07:21;25.10;99.90
18880;DHT22;9572;52.378;13.404;2022-08-21T11:09:51;25.20;99.90
18880;DHT22;9572;52.378;13.404;2022-08-21T11:12:30;25.40;99.90
18880;DHT22;9572;52.378;13.404;2022-08-21T11:15:04;25.70;99.90
18880;DHT22;9572;52.378;13.404;2022-08-21T11:17:36;25.80;99.90
18880;DHT22;9572;52.378;13.404;2022-08-21T11:20:12;25.80;99.90
18880;DHT22;9572;52.378;13.404;2022-08-21T11:22:43;25.90;99.90
18880;DHT22;9572;52.378;13.404;2022-08-21T11:25:17;26.00;99.90
18880;DHT22;9572;52.378;13.404;2022-08-21T11:27:52;26.10;99.90
18880;DHT22;9572;52.378;13.404;2022-08-21T11:30:21;26.20;99.90
18880;DHT22;9572;52.378;13.404;2022-08-21T11:33:00;26.30;99.90
18880;DHT22;9572;52.378;13.404;2022-08-21T11:35:34;26.00;99.90
18880;DHT22;9572;52.378;13.404;2022-08-21T11:38:16;26.10;99.90
18880;DHT22;9572;52.378;13.404;2022-08-21T11:40:56;26.00;99.90
18880;DHT22;9572;52.378;13.404;2022-08-21T11:43:35;26.00;99.90
18880;DHT22;9572;52.378;13.404;2022-08-21T11:46:14;25.90;99.90
18880;DHT22;9572;52.378;13.404;2022-08-21T11:48:56;25.90;99.90
18880;DHT22;9572;52.378;13.404;2022-08-21T11:51:29;26.00;99.90
18880;DHT22;9572;52.378;13.404;2022-08-21T11:54:04;26.10;99.90
18880;DHT22;9572;52.378;13.404;2022-08-21T11:56:38;26.20;99.90
18880;DHT22;9572;52.378;13.404;2022-08-21T11:59:11;26.20;99.90
18880;DHT22;9572;52.378;13.404;2022-08-21T12:01:43;26.30;99.90
18880;DHT22;9572;52.378;13.404;2022-08-21T12:04:18;26.10;99.90
18880;DHT22;9572;52.378;13.404;2022-08-21T12:06:47;26.10;99.90
18880;DHT22;9572;52.378;13.404;2022-08-21T12:09:32;26.10;99.90
18880;DHT22;9572;52.378;13.404;2022-08-21T12:12:04;26.00;99.90
18880;DHT22;9572;52.378;13.404;2022-08-21T12:14:41;26.00;99.90
18880;DHT22;9572;52.378;13.404;2022-08-21T12:17:19;25.90;99.90
18880;DHT22;9572;52.378;13.404;2022-08-21T12:19:57;25.90;99.90
18880;DHT22;9572;52.378;13.404;2022-08-21T12:22:36;26.00;99.90
18880;DHT22;9572;52.378;13.404;2022-08-21T12:25:07;26.00;99.90
18880;DHT22;9572;52.378;13.404;2022-08-21T12:27:47;26.00;99.90
18880;DHT22;9572;52.378;13.404;2022-08-21T12:30:22;26.00;99.90
18880;DHT22;9572;52.378;13.404;2022-08-21T12:32:57;26.00;99.90
18880;DHT22;9572;52.378;13.404;2022-08-21T12:35:27;26.00;99.90
18880;DHT22;9572;52.378;13.404;2022-08-21T12:38:02;26.00;99.90
18880;DHT22;9572;52.378;13.404;2022-08-21T12:40:40;26.00;99.90
18880;DHT22;9572;52.378;13.404;2022-08-21T12:43:14;26.10;99.90
18880;DHT22;9572;52.378;13.404;2022-08-21T12:45:44;25.90;99.90
18880;DHT22;9572;52.378;13.404;2022-08-21T12:48:16;25.80;99.90
18880;DHT22;9572;52.378;13.404;2022-08-21T12:50:48;25.70;99.90
18880;DHT22;9572;52.378;13.404;2022-08-21T12:53:24;25.40;99.90
18880;DHT22;9572;52.378;13.404;2022-08-21T12:55:54;25.30;99.90
18880;DHT22;9572;52.378;13.404;2022-08-21T12:58:28;25.30;99.90
18880;DHT22;9572;52.378;13.404;2022-08-21T13:00:58;25.50;99.90
18880;DHT22;9572;52.378;13.404;2022-08-21T13:03:26;25.50;99.90
18880;DHT22;9572;52.378;13.404;2022-08-21T13:05:54;25.60;99.90
18880;DHT22;9572;52.378;13.404;2022-08-21T13:08:22;25.60;99.90
18880;DHT22;9572;52.378;13.404;2022-08-21T13:10:57;25.70;99.90
18880;DHT22;9572;52.378;13.404;2022-08-21T13:13:27;25.60;99.90
18880;DHT22;9572;52.378;13.404;2022-08-21T13:15:57;25.50;99.90
18880;DHT22;9572;52.378;13.404;2022-08-21T13:18:28;25.40;99.90
18880;DHT22;9572;52.378;13.404;2022-08-21T13:21:04;25.40;99.90
18880;DHT22;9572;52.378;13.404;2022-08-21T13:23:31;25.30;99.90
18880;DHT22;9572;52.378;13.404;2022-08-21T13:25:58;25.30;99.90
18880;DHT22;9572;52.378;13.404;2022-08-21T13:28:34;25.20;99.90
18880;DHT22;9572;52.378;13.404;2022-08-21T13:31:07;25.10;99.90
18880;DHT22;9572;52.378;13.404;2022-08-21T13:33:37;25.10;99.90
18880;DHT22;9572;52.378;13.404;2022-08-21T13:36:10;25.10;99.90
18880;DHT22;9572;52.378;13.404;2022-08-21T13:38:40;24.80;99.90
18880;DHT22;9572;52.378;13.404;2022-08-21T13:41:12;24.80;99.90
18880;DHT22;9572;52.378;13.404;2022-08-21T13:43:48;24.90;99.90
18880;DHT22;9572;52.378;13.404;2022-08-21T13:46:16;24.90;99.90
18880;DHT22;9572;52.378;13.404;2022-08-21T13:48:44;25.00;99.90
18880;DHT22;9572;52.378;13.404;2022-08-21T13:51:12;25.10;99.90
18880;DHT22;9572;52.378;13.404;2022-08-21T13:53:46;25.20;99.90
18880;DHT22;9572;52.378;13.404;2022-08-21T13:56:27;25.10;99.90
18880;DHT22;9572;52.378;13.404;2022-08-21T13:58:57;25.10;99.90
18880;DHT22;9572;52.378;13.404;2022-08-21T14:01:27;25.00;99.90
18880;DHT22;9572;52.378;13.404;2022-08-21T14:04:01;24.80;99.90
18880;DHT22;9572;52.378;13.404;2022-08-21T14:06:33;24.80;99.90
18880;DHT22;9572;52.378;13.404;2022-08-21T14:09:08;24.80;99.90
18880;DHT22;9572;52.378;13.404;2022-08-21T14:11:36;24.70;99.90
18880;DHT22;9572;52.378;13.404;2022-08-21T14:14:17;24.60;99.90
18880;DHT22;9572;52.378;13.404;2022-08-21T14:16:53;24.50;99.90
18880;DHT22;9572;52.378;13.404;2022-08-21T14:19:23;24.50;99.90
18880;DHT22;9572;52.378;13.404;2022-08-21T14:21:50;24.40;99.90
18880;DHT22;9572;52.378;13.404;2022-08-21T14:24:27;24.30;99.90
18880;DHT22;9572;52.378;13.404;2022-08-21T14:26:56;24.20;99.90
18880;DHT22;9572;52.378;13.404;2022-08-21T14:29:27;24.10;99.90
18880;DHT22;9572;52.378;13.404;2022-08-21T14:31:56;24.10;99.90
18880;DHT22;9572;52.378;13.404;2022-08-21T14:34:26;24.10;99.90
18880;DHT22;9572;52.378;13.404;2022-08-21T14:36:55;24.10;99.90
18880;DHT22;9572;52.378;13.404;2022-08-21T14:39:22;24.00;99.90
18880;DHT22;9572;52.378;13.404;2022-08-21T14:41:49;24.00;99.90
18880;DHT22;9572;52.378;13.404;2022-08-21T14:44:19;24.00;99.90
18880;DHT22;9572;52.378;13.404;2022-08-21T14:46:47;23.90;99.90
18880;DHT22;9572;52.378;13.404;2022-08-21T14:49:14;23.90;99.90
18880;DHT22;9572;52.378;13.404;2022-08-21T14:51:41;23.80;99.90
18880;DHT22;9572;52.378;13.404;2022-08-21T14:54:08;23.80;99.90
18880;DHT22;9572;52.378;13.404;2022-08-21T14:56:36;23.80;99.90
18880;DHT22;9572;52.378;13.404;2022-08-21T14:59:05;23.70;99.90
18880;DHT22;9572;52.378;13.404;2022-08-21T15:01:38;23.70;99.90
18880;DHT22;9572;52.378;13.404;2022-08-21T15:04:10;23.60;99.90
18880;DHT22;9572;52.378;13.404;2022-08-21T15:06:37;23.60;99.90
18880;DHT22;9572;52.378;13.404;2022-08-21T15:09:07;23.60;99.90
18880;DHT22;9572;52.378;13.404;2022-08-21T15:11:37;23.60;99.90
18880;DHT22;9572;52.378;13.404;2022-08-21T15:14:10;23.50;99.90
18880;DHT22;9572;52.378;13.404;2022-08-21T15:16:39;23.50;99.90
18880;DHT22;9572;52.378;13.404;2022-08-21T15:19:09;23.50;99.90
18880;DHT22;9572;52.378;13.404;2022-08-21T15:21:36;23.50;99.90
18880;DHT22;9572;52.378;13.404;2022-08-21T15:24:03;23.60;99.90
18880;DHT22;9572;52.378;13.404;2022-08-21T15:26:30;23.70;99.90
18880;DHT22;9572;52.378;13.404;2022-08-21T15:28:59;23.60;99.90
18880;DHT22;9572;52.378;13.404;2022-08-21T15:31:26;23.60;99.90
18880;DHT22;9572;52.378;13.404;2022-08-21T15:33:53;23.50;99.90
18880;DHT22;9572;52.378;13.404;2022-08-21T15:36:22;23.50;99.90
18880;DHT22;9572;52.378;13.404;2022-08-21T15:38:49;23.50;99.90
18880;DHT22;9572;52.378;13.404;2022-08-21T15:41:17;23.50;99.90
18880;DHT22;9572;52.378;13.404;2022-08-21T15:43:46;23.40;99.90
18880;DHT22;9572;52.378;13.404;2022-08-21T15:46:16;23.40;99.90
18880;DHT22;9572;52.378;13.404;2022-08-21T15:48:44;23.40;99.90
18880;DHT22;9572;52.378;13.404;2022-08-21T15:51:12;23.30;99.90